sensor_id;sensor_type;location;lat;lon;timestamp;temperature;humidity
16578;DHT22;8401;52.528;13.340;2023-05-18T00:02:00;10.00;99.90
16578;DHT22;8401;52.528;13.340;2023-05-18T00:04:31;10.10;99.90
16578;DHT22;8401;52.528;13.340;2023-05-18T00:06:59;10.10;99.90
16578;DHT22;8401;52.528;13.340;2023-05-18T00:09:32;10.00;99.90
16578;DHT22;8401;52.528;13.340;2023-05-18T00:11:59;10.00;99.90
16578;DHT22;8401;52.528;13.340;2023-05-18T00:14:26;10.00;99.90
16578;DHT22;8401;52.528;13.340;2023-05-18T00:16:51;10.10;99.90
16578;DHT22;8401;52.528;13.340;2023-05-18T00:19:21;10.00;99.90
16578;DHT22;8401;52.528;13.340;2023-05-18T00:21:49;10.00;99.90
16578;DHT22;8401;52.528;13.340;2023-05-18T00:24:16;10.00;99.90
16578;DHT22;8401;52.528;13.340;2023-05-18T00:26:45;10.00;99.90
16578;DHT22;8401;52.528;13.340;2023-05-18T00:29:12;10.00;99.90
16578;DHT22;8401;52.528;13.340;2023-05-18T00:31:38;10.00;99.90
16578;DHT22;8401;52.528;13.340;2023-05-18T00:34:12;9.90;99.90
16578;DHT22;8401;52.528;13.340;2023-05-18T00:36:38;9.90;99.90
16578;DHT22;8401;52.528;13.340;2023-05-18T00:39:05;10.00;99.90
16578;DHT22;8401;52.528;13.340;2023-05-18T00:41:32;10.00;99.90
16578;DHT22;8401;52.528;13.340;2023-05-18T00:43:58;9.90;99.90
16578;DHT22;8401;52.528;13.340;2023-05-18T00:46:25;9.90;99.90
16578;DHT22;8401;52.528;13.340;2023-05-18T00:48:52;9.80;99.90
16578;DHT22;8401;52.528;13.340;2023-05-18T00:51:19;9.80;99.90
16578;DHT22;8401;52.528;13.340;2023-05-18T00:53:46;9.70;99.90
16578;DHT22;8401;52.528;13.340;2023-05-18T00:56:12;9.70;99.90
16578;DHT22;8401;52.528;13.340;2023-05-18T00:58:38;9.60;99.90
16578;DHT22;8401;52.528;13.340;2023-05-18T01:01:05;9.60;99.90
16578;DHT22;8401;52.528;13.340;2023-05-18T01:03:35;9.60;99.90
16578;DHT22;8401;52.528;13.340;2023-05-18T01:06:06;9.50;99.90
16578;DHT22;8401;52.528;13.340;2023-05-18T01:08:33;9.60;99.90
16578;DHT22;8401;52.528;13.340;2023-05-18T01:13:42;9.70;99.90
16578;DHT22;8401;52.528;13.340;2023-05-18T01:16:14;9.60;99.90
16578;DHT22;8401;52.528;13.340;2023-05-18T01:19:05;9.60;99.90
16578;DHT22;8401;52.528;13.340;2023-05-18T01:21:56;9.50;99.90
16578;DHT22;8401;52.528;13.340;2023-05-18T01:24:47;9.50;99.90
16578;DHT22;8401;52.528;13.340;2023-05-18T01:27:16;9.40;99.90
16578;DHT22;8401;52.528;13.340;2023-05-18T01:29:44;9.40;99.90
16578;DHT22;8401;52.528;13.340;2023-05-18T01:32:20;9.40;99.90
16578;DHT22;8401;52.528;13.340;2023-05-18T01:34:47;9.40;99.90
16578;DHT22;8401;52.528;13.340;2023-05-18T01:37:13;9.30;99.90
16578;DHT22;8401;52.528;13.340;2023-05-18T01:39:39;9.30;99.90
16578;DHT22;8401;52.528;13.340;2023-05-18T01:42:14;9.30;99.90
16578;DHT22;8401;52.528;13.340;2023-05-18T01:44:49;9.30;99.90
16578;DHT22;8401;52.528;13.340;2023-05-18T01:47:16;9.30;99.90
16578;DHT22;8401;52.528;13.340;2023-05-18T01:50:05;9.20;99.90
16578;DHT22;8401;52.528;13.340;2023-05-18T01:52:38;9.20;99.90
16578;DHT22;8401;52.528;13.340;2023-05-18T01:55:06;9.10;99.90
16578;DHT22;8401;52.528;13.340;2023-05-18T01:57:35;9.20;99.90
16578;DHT22;8401;52.528;13.340;2023-05-18T02:00:02;9.30;99.90
16578;DHT22;8401;52.528;13.340;2023-05-18T02:02:32;9.20;99.90
16578;DHT22;8401;52.528;13.340;2023-05-18T02:04:58;9.20;99.90
16578;DHT22;8401;52.528;13.340;2023-05-18T02:07:23;9.30;99.90
16578;DHT22;8401;52.528;13.340;2023-05-18T02:09:49;9.20;99.90
16578;DHT22;8401;52.528;13.340;2023-05-18T02:12:14;9.20;99.90
16578;DHT22;8401;52.528;13.340;2023-05-18T02:14:40;9.30;99.90
16578;DHT22;8401;52.528;13.340;2023-05-18T02:17:06;9.30;99.90
16578;DHT22;8401;52.528;13.340;2023-05-18T02:19:32;9.20;99.90
16578;DHT22;8401;52.528;13.340;2023-05-18T02:21:58;9.10;99.90
16578;DHT22;8401;52.528;13.340;2023-05-18T02:24:24;9.10;99.90
16578;DHT22;8401;52.528;13.340;2023-05-18T02:26:50;9.20;99.90
16578;DHT22;8401;52.528;13.340;2023-05-18T02:29:16;9.20;99.90
16578;DHT22;8401;52.528;13.340;2023-05-18T02:31:42;9.20;99.90
16578;DHT22;8401;52.528;13.340;2023-05-18T02:34:08;9.10;99.90
16578;DHT22;8401;52.528;13.340;2023-05-18T02:36:35;9.20;99.90
16578;DHT22;8401;52.528;13.340;2023-05-18T02:39:07;9.10;99.90
16578;DHT22;8401;52.528;13.340;2023-05-18T02:41:34;9.00;99.90
16578;DHT22;8401;52.528;13.340;2023-05-18T02:43:59;9.00;99.90
16578;DHT22;8401;52.528;13.340;2023-05-18T02:46:27;9.00;99.90
16578;DHT22;8401;52.528;13.340;2023-05-18T02:48:52;9.00;99.90
16578;DHT22;8401;52.528;13.340;2023-05-18T02:51:18;9.00;99.90
16578;DHT22;8401;52.528;13.340;2023-05-18T02:53:44;8.90;99.90
16578;DHT22;8401;52.528;13.340;2023-05-18T02:56:11;8.90;99.90
16578;DHT22;8401;52.528;13.340;2023-05-18T02:58:37;8.90;99.90
16578;DHT22;8401;52.528;13.340;2023-05-18T03:01:03;8.80;99.90
16578;DHT22;8401;52.528;13.340;2023-05-18T03:03:32;8.90;99.90
16578;DHT22;8401;52.528;13.340;2023-05-18T03:06:01;8.80;99.90
16578;DHT22;8401;52.528;13.340;2023-05-18T03:08:27;8.80;99.90
16578;DHT22;8401;52.528;13.340;2023-05-18T03:10:53;8.80;99.90
16578;DHT22;8401;52.528;13.340;2023-05-18T03:13:19;8.70;99.90
16578;DHT22;8401;52.528;13.340;2023-05-18T03:15:45;8.80;99.90
16578;DHT22;8401;52.528;13.340;2023-05-18T03:18:11;8.70;99.90
16578;DHT22;8401;52.528;13.340;2023-05-18T03:20:37;8.70;99.90
16578;DHT22;8401;52.528;13.340;2023-05-18T03:23:03;8.70;99.90
16578;DHT22;8401;52.528;13.340;2023-05-18T03:25:29;8.70;99.90
16578;DHT22;8401;52.528;13.340;2023-05-18T03:27:57;8.70;99.90
16578;DHT22;8401;52.528;13.340;2023-05-18T03:30:23;8.50;99.90
16578;DHT22;8401;52.528;13.340;2023-05-18T03:32:49;8.60;99.90
16578;DHT22;8401;52.528;13.340;2023-05-18T03:35:15;8.50;99.90
16578;DHT22;8401;52.528;13.340;2023-05-18T03:37:41;8.60;99.90
16578;DHT22;8401;52.528;13.340;2023-05-18T03:40:09;8.50;99.90
16578;DHT22;8401;52.528;13.340;2023-05-18T03:42:36;8.50;99.90
16578;DHT22;8401;52.528;13.340;2023-05-18T03:45:02;8.50;99.90
16578;DHT22;8401;52.528;13.340;2023-05-18T03:47:28;8.50;99.90
16578;DHT22;8401;52.528;13.340;2023-05-18T03:49:54;8.40;99.90
16578;DHT22;8401;52.528;13.340;2023-05-18T03:52:20;8.40;99.90
16578;DHT22;8401;52.528;13.340;2023-05-18T03:54:47;8.40;99.90
16578;DHT22;8401;52.528;13.340;2023-05-18T03:57:17;8.40;99.90
16578;DHT22;8401;52.528;13.340;2023-05-18T03:59:46;8.50;99.90
16578;DHT22;8401;52.528;13.340;2023-05-18T04:02:12;8.50;99.90
16578;DHT22;8401;52.528;13.340;2023-05-18T04:04:38;8.50;99.90
16578;DHT22;8401;52.528;13.340;2023-05-18T04:07:11;8.40;99.90
16578;DHT22;8401;52.528;13.340;2023-05-18T04:09:37;8.40;99.90
16578;DHT22;8401;52.528;13.340;2023-05-18T04:12:03;8.40;99.90
16578;DHT22;8401;52.528;13.340;2023-05-18T04:14:29;8.40;99.90
16578;DHT22;8401;52.528;13.340;2023-05-18T04:16:57;8.50;99.90
16578;DHT22;8401;52.528;13.340;2023-05-18T04:19:35;8.40;99.90
16578;DHT22;8401;52.528;13.340;2023-05-18T04:22:01;8.40;99.90
16578;DHT22;8401;52.528;13.340;2023-05-18T04:24:29;8.30;99.90
16578;DHT22;8401;52.528;13.340;2023-05-18T04:27:00;8.30;99.90
16578;DHT22;8401;52.528;13.340;2023-05-18T04:29:26;8.30;99.90
16578;DHT22;8401;52.528;13.340;2023-05-18T04:31:55;8.30;99.90
16578;DHT22;8401;52.528;13.340;2023-05-18T04:34:29;8.30;99.90
16578;DHT22;8401;52.528;13.340;2023-05-18T04:36:56;8.30;99.90
16578;DHT22;8401;52.528;13.340;2023-05-18T04:39:24;8.40;99.90
16578;DHT22;8401;52.528;13.340;2023-05-18T04:41:50;8.40;99.90
16578;DHT22;8401;52.528;13.340;2023-05-18T04:44:26;8.40;99.90
16578;DHT22;8401;52.528;13.340;2023-05-18T04:46:53;8.40;99.90
16578;DHT22;8401;52.528;13.340;2023-05-18T04:49:19;8.50;99.90
16578;DHT22;8401;52.528;13.340;2023-05-18T04:51:47;8.50;99.90
16578;DHT22;8401;52.528;13.340;2023-05-18T04:54:14;8.60;99.90
16578;DHT22;8401;52.528;13.340;2023-05-18T04:56:40;8.60;99.90
16578;DHT22;8401;52.528;13.340;2023-05-18T04:59:08;8.60;99.90
16578;DHT22;8401;52.528;13.340;2023-05-18T05:01:33;8.70;99.90
16578;DHT22;8401;52.528;13.340;2023-05-18T05:03:59;8.70;99.90
16578;DHT22;8401;52.528;13.340;2023-05-18T05:06:25;8.70;99.90
16578;DHT22;8401;52.528;13.340;2023-05-18T05:08:50;8.80;99.90
16578;DHT22;8401;52.528;13.340;2023-05-18T05:11:16;8.80;99.90
16578;DHT22;8401;52.528;13.340;2023-05-18T05:13:42;8.90;99.90
16578;DHT22;8401;52.528;13.340;2023-05-18T05:16:07;8.90;99.90
16578;DHT22;8401;52.528;13.340;2023-05-18T05:18:33;8.90;99.90
16578;DHT22;8401;52.528;13.340;2023-05-18T05:20:59;9.00;99.90
16578;DHT22;8401;52.528;13.340;2023-05-18T05:23:24;9.10;99.90
16578;DHT22;8401;52.528;13.340;2023-05-18T05:25:50;9.10;99.90
16578;DHT22;8401;52.528;13.340;2023-05-18T05:28:16;9.20;99.90
16578;DHT22;8401;52.528;13.340;2023-05-18T05:30:41;9.30;99.90
16578;DHT22;8401;52.528;13.340;2023-05-18T05:33:07;9.40;99.90
16578;DHT22;8401;52.528;13.340;2023-05-18T05:35:33;9.30;99.90
16578;DHT22;8401;52.528;13.340;2023-05-18T05:37:58;9.50;99.90
16578;DHT22;8401;52.528;13.340;2023-05-18T05:40:24;9.50;99.90
16578;DHT22;8401;52.528;13.340;2023-05-18T05:42:49;9.60;99.90
16578;DHT22;8401;52.528;13.340;2023-05-18T05:45:16;9.60;99.90
16578;DHT22;8401;52.528;13.340;2023-05-18T05:47:41;9.70;99.90
16578;DHT22;8401;52.528;13.340;2023-05-18T05:50:07;9.70;99.90
16578;DHT22;8401;52.528;13.340;2023-05-18T05:52:32;9.80;99.90
16578;DHT22;8401;52.528;13.340;2023-05-18T05:54:58;9.90;99.90
16578;DHT22;8401;52.528;13.340;2023-05-18T05:57:24;10.00;99.90
16578;DHT22;8401;52.528;13.340;2023-05-18T05:59:50;10.10;99.90
16578;DHT22;8401;52.528;13.340;2023-05-18T06:02:15;10.40;99.90
16578;DHT22;8401;52.528;13.340;2023-05-18T06:04:41;10.40;99.90
16578;DHT22;8401;52.528;13.340;2023-05-18T06:07:07;10.50;99.90
16578;DHT22;8401;52.528;13.340;2023-05-18T06:09:33;10.50;99.90
16578;DHT22;8401;52.528;13.340;2023-05-18T06:11:58;10.60;99.90
16578;DHT22;8401;52.528;13.340;2023-05-18T06:14:24;10.60;99.90
16578;DHT22;8401;52.528;13.340;2023-05-18T06:16:50;10.90;99.90
16578;DHT22;8401;52.528;13.340;2023-05-18T06:19:16;10.90;99.90
16578;DHT22;8401;52.528;13.340;2023-05-18T06:21:42;10.80;99.90
16578;DHT22;8401;52.528;13.340;2023-05-18T06:24:07;10.90;99.90
16578;DHT22;8401;52.528;13.340;2023-05-18T06:26:33;11.10;99.90
16578;DHT22;8401;52.528;13.340;2023-05-18T06:28:59;11.00;99.90
16578;DHT22;8401;52.528;13.340;2023-05-18T06:31:25;11.10;99.90
16578;DHT22;8401;52.528;13.340;2023-05-18T06:33:51;11.00;99.90
16578;DHT22;8401;52.528;13.340;2023-05-18T06:36:16;11.00;99.90
16578;DHT22;8401;52.528;13.340;2023-05-18T06:38:42;11.10;99.90
16578;DHT22;8401;52.528;13.340;2023-05-18T06:41:08;11.00;99.90
16578;DHT22;8401;52.528;13.340;2023-05-18T06:43:33;11.10;99.90
16578;DHT22;8401;52.528;13.340;2023-05-18T06:45:59;11.40;99.90
16578;DHT22;8401;52.528;13.340;2023-05-18T06:48:26;11.50;99.90
16578;DHT22;8401;52.528;13.340;2023-05-18T06:50:53;11.90;99.90
16578;DHT22;8401;52.528;13.340;2023-05-18T06:53:18;11.90;99.90
16578;DHT22;8401;52.528;13.340;2023-05-18T06:55:44;12.20;99.90
16578;DHT22;8401;52.528;13.340;2023-05-18T06:58:10;12.10;99.90
16578;DHT22;8401;52.528;13.340;2023-05-18T07:00:36;11.90;99.90
16578;DHT22;8401;52.528;13.340;2023-05-18T07:03:03;12.10;99.90
16578;DHT22;8401;52.528;13.340;2023-05-18T07:05:29;12.20;99.90
16578;DHT22;8401;52.528;13.340;2023-05-18T07:07:55;12.30;99.90
16578;DHT22;8401;52.528;13.340;2023-05-18T07:10:20;12.30;99.90
16578;DHT22;8401;52.528;13.340;2023-05-18T07:12:47;12.50;99.90
16578;DHT22;8401;52.528;13.340;2023-05-18T07:15:13;12.50;99.90
16578;DHT22;8401;52.528;13.340;2023-05-18T07:17:39;12.80;99.90
16578;DHT22;8401;52.528;13.340;2023-05-18T07:20:06;12.90;99.90
16578;DHT22;8401;52.528;13.340;2023-05-18T07:22:34;13.00;99.90
16578;DHT22;8401;52.528;13.340;2023-05-18T07:25:00;13.10;99.90
16578;DHT22;8401;52.528;13.340;2023-05-18T07:27:26;13.00;99.90
16578;DHT22;8401;52.528;13.340;2023-05-18T07:29:52;12.90;99.90
16578;DHT22;8401;52.528;13.340;2023-05-18T07:32:18;13.00;99.90
16578;DHT22;8401;52.528;13.340;2023-05-18T07:34:44;13.60;99.90
16578;DHT22;8401;52.528;13.340;2023-05-18T07:37:12;13.30;99.90
16578;DHT22;8401;52.528;13.340;2023-05-18T07:39:38;13.30;99.90
16578;DHT22;8401;52.528;13.340;2023-05-18T07:42:04;13.60;99.90
16578;DHT22;8401;52.528;13.340;2023-05-18T07:44:29;13.70;99.90
16578;DHT22;8401;52.528;13.340;2023-05-18T07:46:55;14.80;99.90
16578;DHT22;8401;52.528;13.340;2023-05-18T07:49:21;15.60;99.90
16578;DHT22;8401;52.528;13.340;2023-05-18T07:51:50;14.70;99.90
16578;DHT22;8401;52.528;13.340;2023-05-18T07:54:16;14.40;99.90
16578;DHT22;8401;52.528;13.340;2023-05-18T07:56:42;14.50;99.90
16578;DHT22;8401;52.528;13.340;2023-05-18T07:59:09;14.90;99.90
16578;DHT22;8401;52.528;13.340;2023-05-18T08:01:35;15.20;99.90
16578;DHT22;8401;52.528;13.340;2023-05-18T08:04:03;16.00;99.90
16578;DHT22;8401;52.528;13.340;2023-05-18T08:06:28;15.70;99.90
16578;DHT22;8401;52.528;13.340;2023-05-18T08:08:54;14.90;99.90
16578;DHT22;8401;52.528;13.340;2023-05-18T08:11:21;14.70;99.90
16578;DHT22;8401;52.528;13.340;2023-05-18T08:13:47;14.50;99.90
16578;DHT22;8401;52.528;13.340;2023-05-18T08:16:13;14.90;99.90
16578;DHT22;8401;52.528;13.340;2023-05-18T08:18:39;14.60;99.90
16578;DHT22;8401;52.528;13.340;2023-05-18T08:21:05;15.30;99.90
16578;DHT22;8401;52.528;13.340;2023-05-18T08:23:33;16.60;98.90
16578;DHT22;8401;52.528;13.340;2023-05-18T08:25:59;17.90;97.20
16578;DHT22;8401;52.528;13.340;2023-05-18T08:28:25;17.70;96.40
16578;DHT22;8401;52.528;13.340;2023-05-18T08:30:51;17.10;96.20
16578;DHT22;8401;52.528;13.340;2023-05-18T08:33:17;15.80;96.70
16578;DHT22;8401;52.528;13.340;2023-05-18T08:35:42;15.50;97.40
16578;DHT22;8401;52.528;13.340;2023-05-18T08:38:08;15.30;97.40
16578;DHT22;8401;52.528;13.340;2023-05-18T08:40:42;16.30;97.20
16578;DHT22;8401;52.528;13.340;2023-05-18T08:43:15;16.40;96.40
16578;DHT22;8401;52.528;13.340;2023-05-18T08:45:57;16.20;95.90
16578;DHT22;8401;52.528;13.340;2023-05-18T08:48:23;16.00;96.60
16578;DHT22;8401;52.528;13.340;2023-05-18T08:50:50;16.50;96.70
16578;DHT22;8401;52.528;13.340;2023-05-18T08:53:20;17.80;95.90
16578;DHT22;8401;52.528;13.340;2023-05-18T08:55:49;19.10;94.00
16578;DHT22;8401;52.528;13.340;2023-05-18T08:58:18;20.60;91.20
16578;DHT22;8401;52.528;13.340;2023-05-18T09:00:44;22.50;87.50
16578;DHT22;8401;52.528;13.340;2023-05-18T09:03:10;22.30;85.10
16578;DHT22;8401;52.528;13.340;2023-05-18T09:05:40;21.60;86.50
16578;DHT22;8401;52.528;13.340;2023-05-18T09:08:06;22.50;87.30
16578;DHT22;8401;52.528;13.340;2023-05-18T09:10:34;21.10;86.40
16578;DHT22;8401;52.528;13.340;2023-05-18T09:13:00;18.60;89.70
16578;DHT22;8401;52.528;13.340;2023-05-18T09:15:29;17.70;91.20
16578;DHT22;8401;52.528;13.340;2023-05-18T09:17:55;17.40;92.30
16578;DHT22;8401;52.528;13.340;2023-05-18T09:20:21;17.10;92.70
16578;DHT22;8401;52.528;13.340;2023-05-18T09:22:46;17.10;93.00
16578;DHT22;8401;52.528;13.340;2023-05-18T09:25:17;17.00;93.30
16578;DHT22;8401;52.528;13.340;2023-05-18T09:27:42;16.10;93.70
16578;DHT22;8401;52.528;13.340;2023-05-18T09:30:11;16.00;94.30
16578;DHT22;8401;52.528;13.340;2023-05-18T09:32:37;15.70;94.40
16578;DHT22;8401;52.528;13.340;2023-05-18T09:35:04;15.90;94.70
16578;DHT22;8401;52.528;13.340;2023-05-18T09:37:30;16.30;94.50
16578;DHT22;8401;52.528;13.340;2023-05-18T09:45:06;15.80;93.10
16578;DHT22;8401;52.528;13.340;2023-05-18T09:47:39;15.70;93.20
16578;DHT22;8401;52.528;13.340;2023-05-18T09:50:05;16.00;93.60
16578;DHT22;8401;52.528;13.340;2023-05-18T09:52:42;17.90;91.60
16578;DHT22;8401;52.528;13.340;2023-05-18T09:55:10;19.10;90.30
16578;DHT22;8401;52.528;13.340;2023-05-18T09:57:41;20.60;89.10
16578;DHT22;8401;52.528;13.340;2023-05-18T10:00:08;19.00;90.60
16578;DHT22;8401;52.528;13.340;2023-05-18T10:02:41;18.00;91.00
16578;DHT22;8401;52.528;13.340;2023-05-18T10:05:27;16.80;91.70
16578;DHT22;8401;52.528;13.340;2023-05-18T10:07:57;16.30;92.70
16578;DHT22;8401;52.528;13.340;2023-05-18T10:10:25;16.60;92.60
16578;DHT22;8401;52.528;13.340;2023-05-18T10:12:52;16.80;92.80
16578;DHT22;8401;52.528;13.340;2023-05-18T10:15:20;16.70;92.50
16578;DHT22;8401;52.528;13.340;2023-05-18T10:17:48;17.30;92.10
16578;DHT22;8401;52.528;13.340;2023-05-18T10:20:17;17.50;91.90
16578;DHT22;8401;52.528;13.340;2023-05-18T10:22:45;17.90;90.90
16578;DHT22;8401;52.528;13.340;2023-05-18T10:25:18;18.00;90.30
16578;DHT22;8401;52.528;13.340;2023-05-18T10:27:46;18.80;90.10
16578;DHT22;8401;52.528;13.340;2023-05-18T10:30:13;19.20;88.30
16578;DHT22;8401;52.528;13.340;2023-05-18T10:32:39;18.90;87.20
16578;DHT22;8401;52.528;13.340;2023-05-18T10:35:07;17.40;90.20
16578;DHT22;8401;52.528;13.340;2023-05-18T10:37:34;17.30;90.30
16578;DHT22;8401;52.528;13.340;2023-05-18T10:40:02;17.80;90.40
16578;DHT22;8401;52.528;13.340;2023-05-18T10:42:29;17.50;90.70
16578;DHT22;8401;52.528;13.340;2023-05-18T10:44:56;18.00;90.80
16578;DHT22;8401;52.528;13.340;2023-05-18T10:47:26;17.40;91.40
16578;DHT22;8401;52.528;13.340;2023-05-18T10:49:53;17.00;91.40
16578;DHT22;8401;52.528;13.340;2023-05-18T10:52:19;18.10;92.10
16578;DHT22;8401;52.528;13.340;2023-05-18T10:54:46;19.60;90.10
16578;DHT22;8401;52.528;13.340;2023-05-18T10:57:14;21.00;86.20
16578;DHT22;8401;52.528;13.340;2023-05-18T10:59:42;21.10;84.00
16578;DHT22;8401;52.528;13.340;2023-05-18T11:02:17;21.50;85.80
16578;DHT22;8401;52.528;13.340;2023-05-18T11:04:45;22.60;81.90
16578;DHT22;8401;52.528;13.340;2023-05-18T11:07:14;23.50;81.10
16578;DHT22;8401;52.528;13.340;2023-05-18T11:09:41;24.20;80.40
16578;DHT22;8401;52.528;13.340;2023-05-18T11:12:12;22.60;79.60
16578;DHT22;8401;52.528;13.340;2023-05-18T11:14:47;22.10;81.10
16578;DHT22;8401;52.528;13.340;2023-05-18T11:17:24;22.30;78.80
16578;DHT22;8401;52.528;13.340;2023-05-18T11:20:16;22.10;78.20
16578;DHT22;8401;52.528;13.340;2023-05-18T11:28:14;28.50;73.80
16578;DHT22;8401;52.528;13.340;2023-05-18T11:35:55;25.90;70.40
16578;DHT22;8401;52.528;13.340;2023-05-18T11:38:22;24.40;70.10
16578;DHT22;8401;52.528;13.340;2023-05-18T11:40:49;25.30;70.80
16578;DHT22;8401;52.528;13.340;2023-05-18T11:43:22;23.60;70.80
16578;DHT22;8401;52.528;13.340;2023-05-18T11:45:55;23.70;72.00
16578;DHT22;8401;52.528;13.340;2023-05-18T11:48:23;24.90;71.10
16578;DHT22;8401;52.528;13.340;2023-05-18T11:50:52;27.20;70.30
16578;DHT22;8401;52.528;13.340;2023-05-18T11:53:21;30.40;67.90
16578;DHT22;8401;52.528;13.340;2023-05-18T11:55:53;30.00;66.30
16578;DHT22;8401;52.528;13.340;2023-05-18T11:58:23;30.30;64.90
16578;DHT22;8401;52.528;13.340;2023-05-18T12:00:49;28.90;64.00
16578;DHT22;8401;52.528;13.340;2023-05-18T12:03:16;27.90;63.40
16578;DHT22;8401;52.528;13.340;2023-05-18T12:05:42;25.50;64.80
16578;DHT22;8401;52.528;13.340;2023-05-18T12:08:18;23.60;67.30
16578;DHT22;8401;52.528;13.340;2023-05-18T12:10:48;22.10;68.80
16578;DHT22;8401;52.528;13.340;2023-05-18T12:13:16;22.20;70.20
16578;DHT22;8401;52.528;13.340;2023-05-18T12:15:42;20.80;72.60
16578;DHT22;8401;52.528;13.340;2023-05-18T12:18:09;19.90;73.50
16578;DHT22;8401;52.528;13.340;2023-05-18T12:20:38;19.70;75.20
16578;DHT22;8401;52.528;13.340;2023-05-18T12:23:04;20.80;74.40
16578;DHT22;8401;52.528;13.340;2023-05-18T12:25:29;20.60;75.30
16578;DHT22;8401;52.528;13.340;2023-05-18T12:27:55;21.00;74.20
16578;DHT22;8401;52.528;13.340;2023-05-18T12:30:25;21.20;73.80
16578;DHT22;8401;52.528;13.340;2023-05-18T12:32:59;21.50;73.20
16578;DHT22;8401;52.528;13.340;2023-05-18T12:35:29;21.70;72.80
16578;DHT22;8401;52.528;13.340;2023-05-18T12:37:56;20.50;73.30
16578;DHT22;8401;52.528;13.340;2023-05-18T12:40:24;20.30;74.40
16578;DHT22;8401;52.528;13.340;2023-05-18T12:42:58;19.90;75.30
16578;DHT22;8401;52.528;13.340;2023-05-18T12:45:31;20.90;74.90
16578;DHT22;8401;52.528;13.340;2023-05-18T12:48:05;20.20;75.30
16578;DHT22;8401;52.528;13.340;2023-05-18T12:50:30;19.60;76.00
16578;DHT22;8401;52.528;13.340;2023-05-18T12:52:56;19.20;76.40
16578;DHT22;8401;52.528;13.340;2023-05-18T12:55:23;19.20;77.10
16578;DHT22;8401;52.528;13.340;2023-05-18T12:58:06;19.10;78.30
16578;DHT22;8401;52.528;13.340;2023-05-18T13:00:37;18.80;78.20
16578;DHT22;8401;52.528;13.340;2023-05-18T13:03:11;19.70;77.90
16578;DHT22;8401;52.528;13.340;2023-05-18T13:05:38;20.20;76.90
16578;DHT22;8401;52.528;13.340;2023-05-18T13:08:06;20.70;75.80
16578;DHT22;8401;52.528;13.340;2023-05-18T13:10:32;20.00;76.60
16578;DHT22;8401;52.528;13.340;2023-05-18T13:12:59;20.00;77.40
16578;DHT22;8401;52.528;13.340;2023-05-18T13:15:31;20.50;76.80
16578;DHT22;8401;52.528;13.340;2023-05-18T13:18:02;20.60;74.80
16578;DHT22;8401;52.528;13.340;2023-05-18T13:22:55;20.50;75.60
16578;DHT22;8401;52.528;13.340;2023-05-18T13:25:24;20.70;75.60
16578;DHT22;8401;52.528;13.340;2023-05-18T13:27:51;20.30;75.20
16578;DHT22;8401;52.528;13.340;2023-05-18T13:30:19;19.70;76.20
16578;DHT22;8401;52.528;13.340;2023-05-18T13:32:45;20.20;76.30
16578;DHT22;8401;52.528;13.340;2023-05-18T13:35:11;20.40;76.10
16578;DHT22;8401;52.528;13.340;2023-05-18T13:37:38;20.50;75.40
16578;DHT22;8401;52.528;13.340;2023-05-18T13:40:04;20.10;75.70
16578;DHT22;8401;52.528;13.340;2023-05-18T13:42:31;19.90;76.10
16578;DHT22;8401;52.528;13.340;2023-05-18T13:44:57;19.90;76.00
16578;DHT22;8401;52.528;13.340;2023-05-18T13:47:22;19.70;76.10
16578;DHT22;8401;52.528;13.340;2023-05-18T13:49:48;19.70;76.00
16578;DHT22;8401;52.528;13.340;2023-05-18T13:52:13;19.80;76.60
16578;DHT22;8401;52.528;13.340;2023-05-18T13:54:39;19.70;76.30
16578;DHT22;8401;52.528;13.340;2023-05-18T13:57:05;19.60;76.60
16578;DHT22;8401;52.528;13.340;2023-05-18T13:59:32;19.80;76.10
16578;DHT22;8401;52.528;13.340;2023-05-18T14:01:59;19.80;75.80
16578;DHT22;8401;52.528;13.340;2023-05-18T14:04:26;19.20;75.90
16578;DHT22;8401;52.528;13.340;2023-05-18T14:06:51;19.40;76.20
16578;DHT22;8401;52.528;13.340;2023-05-18T14:09:18;19.50;76.00
16578;DHT22;8401;52.528;13.340;2023-05-18T14:11:44;19.30;76.40
16578;DHT22;8401;52.528;13.340;2023-05-18T14:14:10;20.10;76.30
16578;DHT22;8401;52.528;13.340;2023-05-18T14:16:35;20.40;75.50
16578;DHT22;8401;52.528;13.340;2023-05-18T14:19:01;20.50;75.50
16578;DHT22;8401;52.528;13.340;2023-05-18T14:21:27;20.70;74.70
16578;DHT22;8401;52.528;13.340;2023-05-18T14:23:53;20.40;73.60
16578;DHT22;8401;52.528;13.340;2023-05-18T14:26:21;20.10;74.20
16578;DHT22;8401;52.528;13.340;2023-05-18T14:28:47;19.60;75.10
16578;DHT22;8401;52.528;13.340;2023-05-18T14:31:12;19.80;75.30
16578;DHT22;8401;52.528;13.340;2023-05-18T14:33:38;19.80;75.40
16578;DHT22;8401;52.528;13.340;2023-05-18T14:36:04;19.80;74.40
16578;DHT22;8401;52.528;13.340;2023-05-18T14:38:30;19.80;74.80
16578;DHT22;8401;52.528;13.340;2023-05-18T14:40:55;19.90;73.70
16578;DHT22;8401;52.528;13.340;2023-05-18T14:43:21;20.00;74.00
16578;DHT22;8401;52.528;13.340;2023-05-18T14:45:47;20.20;74.00
16578;DHT22;8401;52.528;13.340;2023-05-18T14:48:12;20.30;74.10
16578;DHT22;8401;52.528;13.340;2023-05-18T14:50:38;20.40;74.00
16578;DHT22;8401;52.528;13.340;2023-05-18T14:53:03;20.40;73.20
16578;DHT22;8401;52.528;13.340;2023-05-18T14:55:29;20.20;73.70
16578;DHT22;8401;52.528;13.340;2023-05-18T14:57:55;20.00;74.20
16578;DHT22;8401;52.528;13.340;2023-05-18T15:00:22;20.30;74.40
16578;DHT22;8401;52.528;13.340;2023-05-18T15:02:47;20.10;74.70
16578;DHT22;8401;52.528;13.340;2023-05-18T15:05:13;20.80;73.90
16578;DHT22;8401;52.528;13.340;2023-05-18T15:07:40;20.90;73.80
16578;DHT22;8401;52.528;13.340;2023-05-18T15:10:06;20.70;73.30
16578;DHT22;8401;52.528;13.340;2023-05-18T15:12:32;20.20;73.50
16578;DHT22;8401;52.528;13.340;2023-05-18T15:14:57;19.60;74.20
16578;DHT22;8401;52.528;13.340;2023-05-18T15:17:23;20.00;74.10
16578;DHT22;8401;52.528;13.340;2023-05-18T15:19:49;20.40;73.70
16578;DHT22;8401;52.528;13.340;2023-05-18T15:22:14;20.00;74.40
16578;DHT22;8401;52.528;13.340;2023-05-18T15:24:40;20.10;74.50
16578;DHT22;8401;52.528;13.340;2023-05-18T15:27:05;20.10;74.30
16578;DHT22;8401;52.528;13.340;2023-05-18T15:29:31;19.50;75.80
16578;DHT22;8401;52.528;13.340;2023-05-18T15:31:57;19.20;76.40
16578;DHT22;8401;52.528;13.340;2023-05-18T15:34:22;19.30;76.50
16578;DHT22;8401;52.528;13.340;2023-05-18T15:36:48;18.80;76.50
16578;DHT22;8401;52.528;13.340;2023-05-18T15:39:14;18.70;77.40
16578;DHT22;8401;52.528;13.340;2023-05-18T15:41:40;18.60;78.30
16578;DHT22;8401;52.528;13.340;2023-05-18T15:44:05;19.40;77.20
16578;DHT22;8401;52.528;13.340;2023-05-18T15:46:31;19.70;76.80
16578;DHT22;8401;52.528;13.340;2023-05-18T15:48:59;19.90;76.40
16578;DHT22;8401;52.528;13.340;2023-05-18T15:51:25;19.60;76.60
16578;DHT22;8401;52.528;13.340;2023-05-18T15:53:50;19.50;76.90
16578;DHT22;8401;52.528;13.340;2023-05-18T15:56:16;19.40;77.10
16578;DHT22;8401;52.528;13.340;2023-05-18T15:58:43;19.00;77.20